sensor_id;sensor_type;location;lat;lon;timestamp;P1;durP1;ratioP1;P2;durP2;ratioP2
28311;SDS011;15572;48.810;9.148;2022-07-23T00:03:33;6.30;;;4.93;;
28311;SDS011;15572;48.810;9.148;2022-07-23T00:08:29;5.18;;;4.68;;
28311;SDS011;15572;48.810;9.148;2022-07-23T00:13:26;5.47;;;4.65;;
28311;SDS011;15572;48.810;9.148;2022-07-23T00:18:22;5.05;;;4.35;;
28311;SDS011;15572;48.810;9.148;2022-07-23T00:23:20;7.72;;;4.85;;
28311;SDS011;15572;48.810;9.148;2022-07-23T00:28:17;5.35;;;4.50;;
28311;SDS011;15572;48.810;9.148;2022-07-23T00:33:14;6.57;;;4.47;;
28311;SDS011;15572;48.810;9.148;2022-07-23T00:38:11;5.00;;;4.47;;
28311;SDS011;15572;48.810;9.148;2022-07-23T00:43:08;4.80;;;4.28;;
28311;SDS011;15572;48.810;9.148;2022-07-23T00:48:05;5.40;;;4.50;;
28311;SDS011;15572;48.810;9.148;2022-07-23T00:53:02;5.20;;;4.70;;
28311;SDS011;15572;48.810;9.148;2022-07-23T00:57:58;5.22;;;4.72;;
28311;SDS011;15572;48.810;9.148;2022-07-23T01:02:57;7.00;;;5.00;;
28311;SDS011;15572;48.810;9.148;2022-07-23T01:07:53;5.13;;;4.63;;
28311;SDS011;15572;48.810;9.148;2022-07-23T01:12:50;5.22;;;4.72;;
28311;SDS011;15572;48.810;9.148;2022-07-23T01:17:46;5.93;;;4.72;;
28311;SDS011;15572;48.810;9.148;2022-07-23T01:22:45;6.63;;;4.30;;
28311;SDS011;15572;48.810;9.148;2022-07-23T01:27:41;5.25;;;4.75;;
28311;SDS011;15572;48.810;9.148;2022-07-23T01:32:38;6.00;;;4.85;;
28311;SDS011;15572;48.810;9.148;2022-07-23T01:37:35;5.03;;;4.53;;
28311;SDS011;15572;48.810;9.148;2022-07-23T01:42:33;5.05;;;4.43;;
28311;SDS011;15572;48.810;9.148;2022-07-23T01:47:31;5.10;;;4.60;;
28311;SDS011;15572;48.810;9.148;2022-07-23T01:52:27;6.30;;;4.40;;
28311;SDS011;15572;48.810;9.148;2022-07-23T01:57:24;6.47;;;4.78;;
28311;SDS011;15572;48.810;9.148;2022-07-23T02:02:22;5.45;;;4.95;;
28311;SDS011;15572;48.810;9.148;2022-07-23T02:07:19;7.03;;;4.63;;
28311;SDS011;15572;48.810;9.148;2022-07-23T02:12:15;6.35;;;4.35;;
28311;SDS011;15572;48.810;9.148;2022-07-23T02:17:12;5.43;;;4.90;;
28311;SDS011;15572;48.810;9.148;2022-07-23T02:22:09;4.78;;;4.30;;
28311;SDS011;15572;48.810;9.148;2022-07-23T02:27:06;5.68;;;4.78;;
28311;SDS011;15572;48.810;9.148;2022-07-23T02:32:03;6.70;;;4.82;;
28311;SDS011;15572;48.810;9.148;2022-07-23T02:36:59;5.15;;;4.57;;
28311;SDS011;15572;48.810;9.148;2022-07-23T02:41:58;7.00;;;5.07;;
28311;SDS011;15572;48.810;9.148;2022-07-23T02:46:55;7.93;;;5.75;;
28311;SDS011;15572;48.810;9.148;2022-07-23T02:51:51;7.68;;;4.95;;
28311;SDS011;15572;48.810;9.148;2022-07-23T02:56:48;5.40;;;4.82;;
28311;SDS011;15572;48.810;9.148;2022-07-23T03:01:47;6.10;;;5.18;;
28311;SDS011;15572;48.810;9.148;2022-07-23T03:06:43;5.57;;;5.00;;
28311;SDS011;15572;48.810;9.148;2022-07-23T03:11:40;5.72;;;4.88;;
28311;SDS011;15572;48.810;9.148;2022-07-23T03:16:36;7.65;;;5.45;;
28311;SDS011;15572;48.810;9.148;2022-07-23T03:21:34;5.38;;;4.88;;
28311;SDS011;15572;48.810;9.148;2022-07-23T03:26:35;8.25;;;5.00;;
28311;SDS011;15572;48.810;9.148;2022-07-23T03:31:32;5.82;;;4.70;;
28311;SDS011;15572;48.810;9.148;2022-07-23T03:36:28;5.57;;;5.07;;
28311;SDS011;15572;48.810;9.148;2022-07-23T03:41:26;5.85;;;5.25;;
28311;SDS011;15572;48.810;9.148;2022-07-23T03:46:22;6.72;;;5.25;;
28311;SDS011;15572;48.810;9.148;2022-07-23T03:51:19;6.75;;;5.05;;
28311;SDS011;15572;48.810;9.148;2022-07-23T03:56:15;7.75;;;5.13;;
28311;SDS011;15572;48.810;9.148;2022-07-23T04:01:13;5.47;;;4.95;;
28311;SDS011;15572;48.810;9.148;2022-07-23T04:06:10;7.47;;;5.32;;
28311;SDS011;15572;48.810;9.148;2022-07-23T04:11:06;6.47;;;5.68;;
28311;SDS011;15572;48.810;9.148;2022-07-23T04:16:03;5.82;;;5.07;;
28311;SDS011;15572;48.810;9.148;2022-07-23T04:21:02;6.07;;;5.15;;
28311;SDS011;15572;48.810;9.148;2022-07-23T04:25:59;7.07;;;5.47;;
28311;SDS011;15572;48.810;9.148;2022-07-23T04:30:56;5.78;;;5.15;;
28311;SDS011;15572;48.810;9.148;2022-07-23T04:35:52;5.80;;;4.97;;
28311;SDS011;15572;48.810;9.148;2022-07-23T04:40:50;6.22;;;5.50;;
28311;SDS011;15572;48.810;9.148;2022-07-23T04:45:46;6.05;;;5.30;;
28311;SDS011;15572;48.810;9.148;2022-07-23T04:50:43;6.78;;;5.53;;
28311;SDS011;15572;48.810;9.148;2022-07-23T04:55:39;7.68;;;5.05;;
28311;SDS011;15572;48.810;9.148;2022-07-23T05:00:37;5.97;;;5.38;;
28311;SDS011;15572;48.810;9.148;2022-07-23T05:05:34;5.75;;;5.22;;
28311;SDS011;15572;48.810;9.148;2022-07-23T05:10:31;8.07;;;5.35;;
28311;SDS011;15572;48.810;9.148;2022-07-23T05:15:28;6.00;;;5.00;;
28311;SDS011;15572;48.810;9.148;2022-07-23T05:20:26;6.20;;;5.60;;
28311;SDS011;15572;48.810;9.148;2022-07-23T05:25:23;7.30;;;5.28;;
28311;SDS011;15572;48.810;9.148;2022-07-23T05:30:20;6.68;;;5.70;;
28311;SDS011;15572;48.810;9.148;2022-07-23T05:35:16;6.40;;;5.70;;
28311;SDS011;15572;48.810;9.148;2022-07-23T05:40:14;6.03;;;5.43;;
28311;SDS011;15572;48.810;9.148;2022-07-23T05:45:11;6.82;;;5.38;;
28311;SDS011;15572;48.810;9.148;2022-07-23T05:50:08;5.90;;;5.30;;
28311;SDS011;15572;48.810;9.148;2022-07-23T05:55:05;6.22;;;5.53;;
28311;SDS011;15572;48.810;9.148;2022-07-23T06:00:05;6.85;;;5.72;;
28311;SDS011;15572;48.810;9.148;2022-07-23T06:05:03;7.45;;;5.60;;
28311;SDS011;15572;48.810;9.148;2022-07-23T06:10:00;6.63;;;5.68;;
28311;SDS011;15572;48.810;9.148;2022-07-23T06:14:57;6.28;;;5.63;;
28311;SDS011;15572;48.810;9.148;2022-07-23T06:19:55;7.75;;;6.20;;
28311;SDS011;15572;48.810;9.148;2022-07-23T06:24:52;6.97;;;5.97;;
28311;SDS011;15572;48.810;9.148;2022-07-23T06:29:48;9.52;;;6.28;;
28311;SDS011;15572;48.810;9.148;2022-07-23T06:34:44;8.30;;;5.95;;
28311;SDS011;15572;48.810;9.148;2022-07-23T06:39:42;6.88;;;5.78;;
28311;SDS011;15572;48.810;9.148;2022-07-23T06:44:39;6.47;;;5.30;;
28311;SDS011;15572;48.810;9.148;2022-07-23T06:49:36;7.38;;;5.60;;
28311;SDS011;15572;48.810;9.148;2022-07-23T06:54:32;9.32;;;6.10;;
28311;SDS011;15572;48.810;9.148;2022-07-23T06:59:30;8.77;;;6.28;;
28311;SDS011;15572;48.810;9.148;2022-07-23T07:04:28;8.55;;;6.60;;
28311;SDS011;15572;48.810;9.148;2022-07-23T07:09:24;6.45;;;5.82;;
28311;SDS011;15572;48.810;9.148;2022-07-23T07:14:21;7.28;;;6.47;;
28311;SDS011;15572;48.810;9.148;2022-07-23T07:19:18;8.30;;;6.10;;
28311;SDS011;15572;48.810;9.148;2022-07-23T07:24:15;7.85;;;6.15;;
28311;SDS011;15572;48.810;9.148;2022-07-23T07:29:11;10.20;;;6.45;;
28311;SDS011;15572;48.810;9.148;2022-07-23T07:34:08;8.30;;;6.88;;
28311;SDS011;15572;48.810;9.148;2022-07-23T07:39:06;9.70;;;7.15;;
28311;SDS011;15572;48.810;9.148;2022-07-23T07:44:05;8.65;;;6.82;;
28311;SDS011;15572;48.810;9.148;2022-07-23T07:49:01;9.43;;;6.72;;
28311;SDS011;15572;48.810;9.148;2022-07-23T07:53:58;8.20;;;6.97;;
28311;SDS011;15572;48.810;9.148;2022-07-23T07:58:56;8.40;;;6.60;;
28311;SDS011;15572;48.810;9.148;2022-07-23T08:03:53;7.53;;;6.72;;
28311;SDS011;15572;48.810;9.148;2022-07-23T08:08:49;9.52;;;7.18;;
28311;SDS011;15572;48.810;9.148;2022-07-23T08:13:46;8.45;;;7.18;;
28311;SDS011;15572;48.810;9.148;2022-07-23T08:18:44;7.95;;;6.65;;
28311;SDS011;15572;48.810;9.148;2022-07-23T08:23:40;7.30;;;6.43;;
28311;SDS011;15572;48.810;9.148;2022-07-23T08:28:37;7.97;;;6.18;;
28311;SDS011;15572;48.810;9.148;2022-07-23T08:33:33;6.88;;;6.00;;
28311;SDS011;15572;48.810;9.148;2022-07-23T08:38:31;7.88;;;6.47;;
28311;SDS011;15572;48.810;9.148;2022-07-23T08:43:30;8.35;;;5.85;;
28311;SDS011;15572;48.810;9.148;2022-07-23T08:48:28;8.35;;;6.10;;
28311;SDS011;15572;48.810;9.148;2022-07-23T08:53:26;6.78;;;5.75;;
28311;SDS011;15572;48.810;9.148;2022-07-23T08:58:25;7.22;;;6.47;;
28311;SDS011;15572;48.810;9.148;2022-07-23T09:03:22;6.53;;;5.80;;
28311;SDS011;15572;48.810;9.148;2022-07-23T09:08:20;6.95;;;5.50;;
28311;SDS011;15572;48.810;9.148;2022-07-23T09:13:39;6.25;;;5.38;;
28311;SDS011;15572;48.810;9.148;2022-07-23T09:18:38;6.65;;;4.95;;
28311;SDS011;15572;48.810;9.148;2022-07-23T09:23:39;7.57;;;5.60;;
28311;SDS011;15572;48.810;9.148;2022-07-23T09:28:47;5.82;;;5.20;;
28311;SDS011;15572;48.810;9.148;2022-07-23T09:33:46;6.07;;;5.47;;
28311;SDS011;15572;48.810;9.148;2022-07-23T09:38:49;5.88;;;5.28;;
28311;SDS011;15572;48.810;9.148;2022-07-23T09:43:48;6.68;;;5.28;;
28311;SDS011;15572;48.810;9.148;2022-07-23T09:48:50;6.07;;;4.93;;
28311;SDS011;15572;48.810;9.148;2022-07-23T09:53:47;5.70;;;5.05;;
28311;SDS011;15572;48.810;9.148;2022-07-23T09:58:44;5.93;;;5.30;;
28311;SDS011;15572;48.810;9.148;2022-07-23T10:03:45;7.22;;;5.60;;
28311;SDS011;15572;48.810;9.148;2022-07-23T10:08:42;6.22;;;5.47;;
28311;SDS011;15572;48.810;9.148;2022-07-23T10:13:44;6.35;;;4.95;;
28311;SDS011;15572;48.810;9.148;2022-07-23T10:18:51;5.70;;;5.10;;
28311;SDS011;15572;48.810;9.148;2022-07-23T10:23:51;5.38;;;4.88;;
28311;SDS011;15572;48.810;9.148;2022-07-23T10:29:02;6.53;;;5.45;;
28311;SDS011;15572;48.810;9.148;2022-07-23T10:34:11;6.07;;;5.22;;
28311;SDS011;15572;48.810;9.148;2022-07-23T10:39:13;7.50;;;5.45;;
28311;SDS011;15572;48.810;9.148;2022-07-23T10:44:14;6.55;;;5.20;;
28311;SDS011;15572;48.810;9.148;2022-07-23T10:54:21;6.65;;;5.38;;
28311;SDS011;15572;48.810;9.148;2022-07-23T10:59:18;5.72;;;5.07;;
28311;SDS011;15572;48.810;9.148;2022-07-23T11:04:14;5.90;;;5.30;;
28311;SDS011;15572;48.810;9.148;2022-07-23T11:09:24;9.38;;;5.72;;
28311;SDS011;15572;48.810;9.148;2022-07-23T11:25:13;38.15;;;20.50;;
28311;SDS011;15572;48.810;9.148;2022-07-23T11:30:37;8.23;;;6.03;;
28311;SDS011;15572;48.810;9.148;2022-07-23T11:35:35;7.68;;;6.20;;
28311;SDS011;15572;48.810;9.148;2022-07-23T11:40:34;18.42;;;16.60;;
28311;SDS011;15572;48.810;9.148;2022-07-23T11:45:35;11.90;;;8.77;;
28311;SDS011;15572;48.810;9.148;2022-07-23T11:50:34;13.70;;;11.27;;
28311;SDS011;15572;48.810;9.148;2022-07-23T11:55:32;10.38;;;8.55;;
28311;SDS011;15572;48.810;9.148;2022-07-23T12:00:31;8.52;;;6.20;;
28311;SDS011;15572;48.810;9.148;2022-07-23T12:05:28;7.53;;;5.60;;
28311;SDS011;15572;48.810;9.148;2022-07-23T12:10:27;6.03;;;5.43;;
28311;SDS011;15572;48.810;9.148;2022-07-23T12:15:27;5.68;;;5.18;;
28311;SDS011;15572;48.810;9.148;2022-07-23T12:20:27;6.22;;;5.45;;
28311;SDS011;15572;48.810;9.148;2022-07-23T12:25:26;7.25;;;5.60;;
28311;SDS011;15572;48.810;9.148;2022-07-23T12:30:24;6.68;;;5.40;;
28311;SDS011;15572;48.810;9.148;2022-07-23T12:35:29;7.28;;;6.10;;
28311;SDS011;15572;48.810;9.148;2022-07-23T12:40:28;7.15;;;6.30;;
28311;SDS011;15572;48.810;9.148;2022-07-23T12:45:27;11.93;;;5.90;;
28311;SDS011;15572;48.810;9.148;2022-07-23T12:50:42;6.68;;;5.88;;
28311;SDS011;15572;48.810;9.148;2022-07-23T12:55:43;7.43;;;6.18;;
28311;SDS011;15572;48.810;9.148;2022-07-23T13:00:51;6.85;;;5.95;;
28311;SDS011;15572;48.810;9.148;2022-07-23T13:05:56;6.20;;;5.32;;
28311;SDS011;15572;48.810;9.148;2022-07-23T13:10:53;6.97;;;5.40;;
28311;SDS011;15572;48.810;9.148;2022-07-23T13:15:50;6.28;;;5.55;;
28311;SDS011;15572;48.810;9.148;2022-07-23T13:20:48;7.03;;;6.13;;
28311;SDS011;15572;48.810;9.148;2022-07-23T13:25:46;6.72;;;6.13;;
28311;SDS011;15572;48.810;9.148;2022-07-23T13:30:44;7.70;;;6.93;;
28311;SDS011;15572;48.810;9.148;2022-07-23T13:35:42;8.75;;;7.20;;
28311;SDS011;15572;48.810;9.148;2022-07-23T13:40:39;9.57;;;7.15;;
28311;SDS011;15572;48.810;9.148;2022-07-23T13:45:39;7.50;;;6.72;;
28311;SDS011;15572;48.810;9.148;2022-07-23T13:50:37;11.77;;;7.00;;
28311;SDS011;15572;48.810;9.148;2022-07-23T13:55:34;8.52;;;7.00;;
28311;SDS011;15572;48.810;9.148;2022-07-23T14:00:31;7.82;;;7.03;;
28311;SDS011;15572;48.810;9.148;2022-07-23T14:05:30;6.40;;;5.80;;
28311;SDS011;15572;48.810;9.148;2022-07-23T14:10:27;7.55;;;6.20;;
28311;SDS011;15572;48.810;9.148;2022-07-23T14:15:24;8.45;;;6.53;;
28311;SDS011;15572;48.810;9.148;2022-07-23T14:20:21;7.30;;;6.50;;
28311;SDS011;15572;48.810;9.148;2022-07-23T14:25:19;7.68;;;6.53;;
28311;SDS011;15572;48.810;9.148;2022-07-23T14:30:16;6.95;;;6.05;;
28311;SDS011;15572;48.810;9.148;2022-07-23T14:35:12;9.77;;;6.38;;
28311;SDS011;15572;48.810;9.148;2022-07-23T14:40:09;8.95;;;6.60;;
28311;SDS011;15572;48.810;9.148;2022-07-23T14:45:07;6.57;;;5.88;;
28311;SDS011;15572;48.810;9.148;2022-07-23T14:50:05;7.20;;;6.10;;
28311;SDS011;15572;48.810;9.148;2022-07-23T14:55:02;9.85;;;6.00;;
28311;SDS011;15572;48.810;9.148;2022-07-23T14:59:59;7.00;;;5.85;;
28311;SDS011;15572;48.810;9.148;2022-07-23T15:04:57;7.80;;;6.80;;
28311;SDS011;15572;48.810;9.148;2022-07-23T15:09:56;8.95;;;6.55;;
28311;SDS011;15572;48.810;9.148;2022-07-23T15:14:53;7.80;;;6.82;;
28311;SDS011;15572;48.810;9.148;2022-07-23T15:19:49;8.27;;;6.47;;
28311;SDS011;15572;48.810;9.148;2022-07-23T15:24:47;7.85;;;6.72;;
28311;SDS011;15572;48.810;9.148;2022-07-23T15:29:43;7.28;;;6.18;;
28311;SDS011;15572;48.810;9.148;2022-07-23T15:34:40;7.72;;;6.47;;
28311;SDS011;15572;48.810;9.148;2022-07-23T15:39:36;7.40;;;6.07;;
28311;SDS011;15572;48.810;9.148;2022-07-23T15:44:34;7.32;;;6.07;;
28311;SDS011;15572;48.810;9.148;2022-07-23T15:49:31;7.65;;;6.50;;
28311;SDS011;15572;48.810;9.148;2022-07-23T15:54:27;6.88;;;6.18;;
28311;SDS011;15572;48.810;9.148;2022-07-23T15:59:24;7.95;;;6.82;;
28311;SDS011;15572;48.810;9.148;2022-07-23T16:04:22;8.10;;;6.80;;
28311;SDS011;15572;48.810;9.148;2022-07-23T16:09:18;8.18;;;6.68;;
28311;SDS011;15572;48.810;9.148;2022-07-23T16:14:15;7.47;;;6.70;;
28311;SDS011;15572;48.810;9.148;2022-07-23T16:19:12;10.25;;;7.10;;
28311;SDS011;15572;48.810;9.148;2022-07-23T16:24:10;10.43;;;7.28;;
28311;SDS011;15572;48.810;9.148;2022-07-23T16:29:06;8.73;;;7.25;;
28311;SDS011;15572;48.810;9.148;2022-07-23T16:34:03;9.82;;;6.85;;
28311;SDS011;15572;48.810;9.148;2022-07-23T16:38:59;8.23;;;7.43;;
28311;SDS011;15572;48.810;9.148;2022-07-23T16:43:58;9.50;;;7.07;;
28311;SDS011;15572;48.810;9.148;2022-07-23T16:48:54;8.52;;;7.63;;
28311;SDS011;15572;48.810;9.148;2022-07-23T16:53:51;10.75;;;8.43;;
28311;SDS011;15572;48.810;9.148;2022-07-23T16:58:50;8.73;;;7.47;;
28311;SDS011;15572;48.810;9.148;2022-07-23T17:03:48;13.55;;;9.43;;
28311;SDS011;15572;48.810;9.148;2022-07-23T17:08:45;10.02;;;8.77;;
28311;SDS011;15572;48.810;9.148;2022-07-23T17:13:41;10.10;;;8.65;;
28311;SDS011;15572;48.810;9.148;2022-07-23T17:18:38;12.98;;;8.20;;
28311;SDS011;15572;48.810;9.148;2022-07-23T17:23:35;9.07;;;7.93;;
28311;SDS011;15572;48.810;9.148;2022-07-23T17:28:32;9.73;;;8.73;;
28311;SDS011;15572;48.810;9.148;2022-07-23T17:33:29;14.00;;;8.60;;
28311;SDS011;15572;48.810;9.148;2022-07-23T17:38:25;10.95;;;8.80;;
28311;SDS011;15572;48.810;9.148;2022-07-23T17:43:23;10.45;;;8.60;;
28311;SDS011;15572;48.810;9.148;2022-07-23T17:48:19;10.10;;;9.07;;
28311;SDS011;15572;48.810;9.148;2022-07-23T17:53:16;12.13;;;9.05;;
28311;SDS011;15572;48.810;9.148;2022-07-23T17:58:12;10.20;;;8.85;;
28311;SDS011;15572;48.810;9.148;2022-07-23T18:03:10;10.52;;;9.27;;
28311;SDS011;15572;48.810;9.148;2022-07-23T18:08:07;11.27;;;8.98;;
28311;SDS011;15572;48.810;9.148;2022-07-23T18:13:04;9.63;;;8.55;;
28311;SDS011;15572;48.810;9.148;2022-07-23T18:18:01;11.65;;;9.32;;
28311;SDS011;15572;48.810;9.148;2022-07-23T18:22:59;11.20;;;8.60;;
28311;SDS011;15572;48.810;9.148;2022-07-23T18:27:57;10.20;;;9.05;;
28311;SDS011;15572;48.810;9.148;2022-07-23T18:32:54;12.00;;;9.35;;
28311;SDS011;15572;48.810;9.148;2022-07-23T18:37:50;10.75;;;9.20;;
28311;SDS011;15572;48.810;9.148;2022-07-23T18:42:48;10.27;;;9.18;;
28311;SDS011;15572;48.810;9.148;2022-07-23T18:47:45;10.90;;;8.48;;
28311;SDS011;15572;48.810;9.148;2022-07-23T18:52:41;11.40;;;9.20;;
28311;SDS011;15572;48.810;9.148;2022-07-23T18:57:38;10.10;;;9.10;;
28311;SDS011;15572;48.810;9.148;2022-07-23T19:02:36;12.05;;;9.20;;
28311;SDS011;15572;48.810;9.148;2022-07-23T19:07:32;11.00;;;9.02;;
28311;SDS011;15572;48.810;9.148;2022-07-23T19:12:29;12.57;;;9.70;;
28311;SDS011;15572;48.810;9.148;2022-07-23T19:17:25;9.90;;;8.90;;
28311;SDS011;15572;48.810;9.148;2022-07-23T19:22:23;12.70;;;9.25;;
28311;SDS011;15572;48.810;9.148;2022-07-23T19:27:21;9.85;;;8.85;;
28311;SDS011;15572;48.810;9.148;2022-07-23T19:32:18;12.00;;;9.52;;
28311;SDS011;15572;48.810;9.148;2022-07-23T19:37:14;10.25;;;9.25;;
28311;SDS011;15572;48.810;9.148;2022-07-23T19:42:13;12.07;;;9.70;;
28311;SDS011;15572;48.810;9.148;2022-07-23T19:47:09;13.07;;;9.70;;
28311;SDS011;15572;48.810;9.148;2022-07-23T19:52:06;12.32;;;9.77;;
28311;SDS011;15572;48.810;9.148;2022-07-23T19:57:03;11.85;;;10.07;;
28311;SDS011;15572;48.810;9.148;2022-07-23T20:02:01;12.48;;;9.95;;
28311;SDS011;15572;48.810;9.148;2022-07-23T20:06:58;12.32;;;10.25;;
28311;SDS011;15572;48.810;9.148;2022-07-23T20:11:54;14.00;;;11.07;;
28311;SDS011;15572;48.810;9.148;2022-07-23T20:16:51;10.88;;;9.50;;
28311;SDS011;15572;48.810;9.148;2022-07-23T20:21:49;12.27;;;9.45;;
28311;SDS011;15572;48.810;9.148;2022-07-23T20:26:46;11.43;;;9.85;;
28311;SDS011;15572;48.810;9.148;2022-07-23T20:31:44;12.70;;;9.20;;
28311;SDS011;15572;48.810;9.148;2022-07-23T20:36:42;11.93;;;9.27;;
28311;SDS011;15572;48.810;9.148;2022-07-23T20:41:41;12.02;;;9.25;;
28311;SDS011;15572;48.810;9.148;2022-07-23T20:46:38;11.45;;;9.45;;
28311;SDS011;15572;48.810;9.148;2022-07-23T20:51:35;12.07;;;9.77;;
28311;SDS011;15572;48.810;9.148;2022-07-23T20:56:32;10.45;;;9.35;;
28311;SDS011;15572;48.810;9.148;2022-07-23T21:01:30;12.52;;;9.90;;
28311;SDS011;15572;48.810;9.148;2022-07-23T21:06:27;11.20;;;9.98;;
28311;SDS011;15572;48.810;9.148;2022-07-23T21:11:24;11.00;;;9.88;;
28311;SDS011;15572;48.810;9.148;2022-07-23T21:16:20;11.82;;;9.88;;
28311;SDS011;15572;48.810;9.148;2022-07-23T21:21:18;11.68;;;10.15;;
28311;SDS011;15572;48.810;9.148;2022-07-23T21:26:15;11.00;;;9.90;;
28311;SDS011;15572;48.810;9.148;2022-07-23T21:31:12;12.05;;;10.25;;
28311;SDS011;15572;48.810;9.148;2022-07-23T21:36:09;13.85;;;9.80;;
28311;SDS011;15572;48.810;9.148;2022-07-23T21:41:07;12.68;;;10.15;;
28311;SDS011;15572;48.810;9.148;2022-07-23T21:46:04;13.25;;;10.32;;
28311;SDS011;15572;48.810;9.148;2022-07-23T21:51:00;12.13;;;9.77;;
28311;SDS011;15572;48.810;9.148;2022-07-23T21:55:57;11.52;;;10.32;;
28311;SDS011;15572;48.810;9.148;2022-07-23T22:00:56;11.02;;;9.90;;
28311;SDS011;15572;48.810;9.148;2022-07-23T22:05:53;13.02;;;10.60;;
28311;SDS011;15572;48.810;9.148;2022-07-23T22:10:49;11.65;;;10.45;;
28311;SDS011;15572;48.810;9.148;2022-07-23T22:15:46;11.52;;;10.32;;
28311;SDS011;15572;48.810;9.148;2022-07-23T22:20:44;11.68;;;10.48;;
28311;SDS011;15572;48.810;9.148;2022-07-23T22:25:40;12.52;;;10.40;;
28311;SDS011;15572;48.810;9.148;2022-07-23T22:30:37;13.82;;;11.05;;
28311;SDS011;15572;48.810;9.148;2022-07-23T22:35:33;13.23;;;11.05;;
28311;SDS011;15572;48.810;9.148;2022-07-23T22:40:32;13.02;;;11.65;;
28311;SDS011;15572;48.810;9.148;2022-07-23T22:45:28;14.18;;;11.40;;
28311;SDS011;15572;48.810;9.148;2022-07-23T22:50:25;12.65;;;10.88;;
28311;SDS011;15572;48.810;9.148;2022-07-23T22:55:21;13.57;;;11.40;;
28311;SDS011;15572;48.810;9.148;2022-07-23T23:00:19;11.40;;;10.23;;
28311;SDS011;15572;48.810;9.148;2022-07-23T23:05:15;12.65;;;10.52;;
28311;SDS011;15572;48.810;9.148;2022-07-23T23:10:12;13.05;;;11.07;;
28311;SDS011;15572;48.810;9.148;2022-07-23T23:15:09;13.85;;;10.48;;
28311;SDS011;15572;48.810;9.148;2022-07-23T23:20:07;12.65;;;10.55;;
28311;SDS011;15572;48.810;9.148;2022-07-23T23:25:05;14.48;;;11.10;;
28311;SDS011;15572;48.810;9.148;2022-07-23T23:30:03;11.73;;;10.60;;
28311;SDS011;15572;48.810;9.148;2022-07-23T23:35:00;12.85;;;10.35;;
28311;SDS011;15572;48.810;9.148;2022-07-23T23:39:58;14.93;;;10.18;;
28311;SDS011;15572;48.810;9.148;2022-07-23T23:44:54;11.32;;;9.88;;
28311;SDS011;15572;48.810;9.148;2022-07-23T23:49:51;11.45;;;9.85;;
28311;SDS011;15572;48.810;9.148;2022-07-23T23:54:47;12.05;;;10.20;;
28311;SDS011;15572;48.810;9.148;2022-07-23T23:59:45;10.73;;;9.63;;
